sensor_id;sensor_type;location;lat;lon;timestamp;P1;durP1;ratioP1;P2;durP2;ratioP2
15843;SDS011;50807;52.436;13.346;2023-01-26T00:00:29;9.20;;;8.30;;
15843;SDS011;50807;52.436;13.346;2023-01-26T00:01:05;8.50;;;7.70;;
15843;SDS011;50807;52.436;13.346;2023-01-26T00:01:38;8.52;;;7.72;;
15843;SDS011;50807;52.436;13.346;2023-01-26T00:02:09;8.73;;;7.85;;
15843;SDS011;50807;52.436;13.346;2023-01-26T00:02:40;9.00;;;8.20;;
15843;SDS011;50807;52.436;13.346;2023-01-26T00:03:12;9.00;;;8.10;;
15843;SDS011;50807;52.436;13.346;2023-01-26T00:03:43;9.55;;;8.55;;
15843;SDS011;50807;52.436;13.346;2023-01-26T00:04:15;8.95;;;8.10;;
15843;SDS011;50807;52.436;13.346;2023-01-26T00:04:46;9.02;;;8.13;;
15843;SDS011;50807;52.436;13.346;2023-01-26T00:05:17;8.70;;;7.90;;
15843;SDS011;50807;52.436;13.346;2023-01-26T00:05:48;9.07;;;8.17;;
15843;SDS011;50807;52.436;13.346;2023-01-26T00:06:20;8.98;;;8.18;;
15843;SDS011;50807;52.436;13.346;2023-01-26T00:06:52;9.07;;;8.18;;
15843;SDS011;50807;52.436;13.346;2023-01-26T00:07:23;10.43;;;9.13;;
15843;SDS011;50807;52.436;13.346;2023-01-26T00:07:53;8.67;;;7.87;;
15843;SDS011;50807;52.436;13.346;2023-01-26T00:08:25;9.90;;;9.00;;
15843;SDS011;50807;52.436;13.346;2023-01-26T00:08:56;8.80;;;7.90;;
15843;SDS011;50807;52.436;13.346;2023-01-26T00:09:26;8.10;;;7.30;;
15843;SDS011;50807;52.436;13.346;2023-01-26T00:09:58;8.25;;;7.45;;
15843;SDS011;50807;52.436;13.346;2023-01-26T00:10:29;8.87;;;7.97;;
15843;SDS011;50807;52.436;13.346;2023-01-26T00:11:01;8.20;;;7.40;;
15843;SDS011;50807;52.436;13.346;2023-01-26T00:11:34;7.70;;;7.00;;
15843;SDS011;50807;52.436;13.346;2023-01-26T00:12:05;8.57;;;7.77;;
15843;SDS011;50807;52.436;13.346;2023-01-26T00:12:36;8.15;;;7.45;;
15843;SDS011;50807;52.436;13.346;2023-01-26T00:13:09;9.25;;;8.35;;
15843;SDS011;50807;52.436;13.346;2023-01-26T00:13:40;8.70;;;7.90;;
15843;SDS011;50807;52.436;13.346;2023-01-26T00:14:12;8.23;;;7.32;;
15843;SDS011;50807;52.436;13.346;2023-01-26T00:14:43;8.55;;;7.75;;
15843;SDS011;50807;52.436;13.346;2023-01-26T00:15:20;8.20;;;7.38;;
15843;SDS011;50807;52.436;13.346;2023-01-26T00:15:51;8.20;;;7.50;;
15843;SDS011;50807;52.436;13.346;2023-01-26T00:16:24;8.90;;;8.00;;
15843;SDS011;50807;52.436;13.346;2023-01-26T00:16:56;9.07;;;8.18;;
15843;SDS011;50807;52.436;13.346;2023-01-26T00:17:27;8.83;;;7.83;;
15843;SDS011;50807;52.436;13.346;2023-01-26T00:17:59;8.95;;;8.15;;
15843;SDS011;50807;52.436;13.346;2023-01-26T00:18:30;8.80;;;7.90;;
15843;SDS011;50807;52.436;13.346;2023-01-26T00:19:01;9.03;;;8.13;;
15843;SDS011;50807;52.436;13.346;2023-01-26T00:19:32;8.13;;;7.32;;
15843;SDS011;50807;52.436;13.346;2023-01-26T00:20:04;8.52;;;7.72;;
15843;SDS011;50807;52.436;13.346;2023-01-26T00:20:36;8.43;;;7.63;;
15843;SDS011;50807;52.436;13.346;2023-01-26T00:21:07;8.63;;;7.83;;
15843;SDS011;50807;52.436;13.346;2023-01-26T00:21:43;7.97;;;7.20;;
15843;SDS011;50807;52.436;13.346;2023-01-26T00:22:13;8.63;;;7.73;;
15843;SDS011;50807;52.436;13.346;2023-01-26T00:22:44;8.97;;;8.07;;
15843;SDS011;50807;52.436;13.346;2023-01-26T00:23:15;9.57;;;8.57;;
15843;SDS011;50807;52.436;13.346;2023-01-26T00:23:47;8.10;;;7.35;;
15843;SDS011;50807;52.436;13.346;2023-01-26T00:24:19;7.47;;;6.78;;
15843;SDS011;50807;52.436;13.346;2023-01-26T00:24:50;7.00;;;6.38;;
15843;SDS011;50807;52.436;13.346;2023-01-26T00:25:21;7.70;;;6.90;;
15843;SDS011;50807;52.436;13.346;2023-01-26T00:25:52;7.43;;;6.73;;
15843;SDS011;50807;52.436;13.346;2023-01-26T00:26:23;7.80;;;7.00;;
15843;SDS011;50807;52.436;13.346;2023-01-26T00:26:56;7.72;;;6.93;;
15843;SDS011;50807;52.436;13.346;2023-01-26T00:27:27;7.73;;;7.03;;
15843;SDS011;50807;52.436;13.346;2023-01-26T00:27:58;7.20;;;6.50;;
15843;SDS011;50807;52.436;13.346;2023-01-26T00:28:30;7.97;;;7.18;;
15843;SDS011;50807;52.436;13.346;2023-01-26T00:29:00;8.80;;;7.90;;
15843;SDS011;50807;52.436;13.346;2023-01-26T00:29:31;7.90;;;7.20;;
15843;SDS011;50807;52.436;13.346;2023-01-26T00:30:03;8.02;;;7.15;;
15843;SDS011;50807;52.436;13.346;2023-01-26T00:30:35;8.70;;;7.88;;
15843;SDS011;50807;52.436;13.346;2023-01-26T00:31:06;8.43;;;7.57;;
15843;SDS011;50807;52.436;13.346;2023-01-26T00:31:44;8.88;;;7.97;;
15843;SDS011;50807;52.436;13.346;2023-01-26T00:32:14;8.18;;;7.43;;
15843;SDS011;50807;52.436;13.346;2023-01-26T00:32:45;8.77;;;7.87;;
15843;SDS011;50807;52.436;13.346;2023-01-26T00:33:17;8.43;;;7.57;;
15843;SDS011;50807;52.436;13.346;2023-01-26T00:33:48;8.07;;;7.37;;
15843;SDS011;50807;52.436;13.346;2023-01-26T00:34:19;8.02;;;7.22;;
15843;SDS011;50807;52.436;13.346;2023-01-26T00:34:51;8.38;;;7.57;;
15843;SDS011;50807;52.436;13.346;2023-01-26T00:35:22;9.23;;;8.33;;
15843;SDS011;50807;52.436;13.346;2023-01-26T00:35:53;8.60;;;7.75;;
15843;SDS011;50807;52.436;13.346;2023-01-26T00:36:25;8.15;;;7.35;;
15843;SDS011;50807;52.436;13.346;2023-01-26T00:36:57;8.13;;;7.32;;
15843;SDS011;50807;52.436;13.346;2023-01-26T00:37:28;8.33;;;7.53;;
15843;SDS011;50807;52.436;13.346;2023-01-26T00:37:59;8.30;;;7.50;;
15843;SDS011;50807;52.436;13.346;2023-01-26T00:38:30;8.77;;;7.97;;
15843;SDS011;50807;52.436;13.346;2023-01-26T00:39:01;9.10;;;8.20;;
15843;SDS011;50807;52.436;13.346;2023-01-26T00:39:33;8.77;;;7.88;;
15843;SDS011;50807;52.436;13.346;2023-01-26T00:40:04;8.07;;;7.27;;
15843;SDS011;50807;52.436;13.346;2023-01-26T00:40:35;8.27;;;7.47;;
15843;SDS011;50807;52.436;13.346;2023-01-26T00:41:07;9.02;;;8.13;;
15843;SDS011;50807;52.436;13.346;2023-01-26T00:41:38;8.80;;;7.90;;
15843;SDS011;50807;52.436;13.346;2023-01-26T00:42:27;8.73;;;7.82;;
15843;SDS011;50807;52.436;13.346;2023-01-26T00:42:58;9.80;;;8.70;;
15843;SDS011;50807;52.436;13.346;2023-01-26T00:43:30;8.93;;;8.02;;
15843;SDS011;50807;52.436;13.346;2023-01-26T00:44:00;9.47;;;8.47;;
15843;SDS011;50807;52.436;13.346;2023-01-26T00:44:31;9.70;;;8.80;;
15843;SDS011;50807;52.436;13.346;2023-01-26T00:45:03;10.68;;;9.50;;
15843;SDS011;50807;52.436;13.346;2023-01-26T00:45:35;9.77;;;8.85;;
15843;SDS011;50807;52.436;13.346;2023-01-26T00:46:07;9.52;;;8.60;;
15843;SDS011;50807;52.436;13.346;2023-01-26T00:46:38;9.50;;;8.20;;
15843;SDS011;50807;52.436;13.346;2023-01-26T00:47:11;9.57;;;8.67;;
15843;SDS011;50807;52.436;13.346;2023-01-26T00:47:43;10.77;;;9.68;;
15843;SDS011;50807;52.436;13.346;2023-01-26T00:48:14;10.53;;;9.53;;
15843;SDS011;50807;52.436;13.346;2023-01-26T00:48:46;9.85;;;8.85;;
15843;SDS011;50807;52.436;13.346;2023-01-26T00:49:16;10.27;;;9.27;;
15843;SDS011;50807;52.436;13.346;2023-01-26T00:49:48;9.88;;;8.88;;
15843;SDS011;50807;52.436;13.346;2023-01-26T00:50:19;9.20;;;8.30;;
15843;SDS011;50807;52.436;13.346;2023-01-26T00:50:50;9.63;;;8.70;;
15843;SDS011;50807;52.436;13.346;2023-01-26T00:51:22;9.57;;;8.63;;
15843;SDS011;50807;52.436;13.346;2023-01-26T00:51:53;9.55;;;8.55;;
15843;SDS011;50807;52.436;13.346;2023-01-26T00:52:24;9.23;;;8.33;;
15843;SDS011;50807;52.436;13.346;2023-01-26T00:52:55;9.52;;;8.63;;
15843;SDS011;50807;52.436;13.346;2023-01-26T00:53:26;9.63;;;8.73;;
15843;SDS011;50807;52.436;13.346;2023-01-26T00:53:57;8.87;;;7.80;;
15843;SDS011;50807;52.436;13.346;2023-01-26T00:54:29;8.80;;;7.97;;
15843;SDS011;50807;52.436;13.346;2023-01-26T00:55:00;9.48;;;8.50;;
15843;SDS011;50807;52.436;13.346;2023-01-26T00:55:31;8.83;;;7.93;;
15843;SDS011;50807;52.436;13.346;2023-01-26T00:56:02;8.65;;;7.75;;
15843;SDS011;50807;52.436;13.346;2023-01-26T00:56:34;9.30;;;8.40;;
15843;SDS011;50807;52.436;13.346;2023-01-26T00:57:05;7.17;;;6.53;;
15843;SDS011;50807;52.436;13.346;2023-01-26T00:57:36;8.18;;;7.38;;
15843;SDS011;50807;52.436;13.346;2023-01-26T00:58:08;7.88;;;6.97;;
15843;SDS011;50807;52.436;13.346;2023-01-26T00:58:40;8.10;;;7.30;;
15843;SDS011;50807;52.436;13.346;2023-01-26T00:59:13;8.05;;;7.25;;
15843;SDS011;50807;52.436;13.346;2023-01-26T00:59:44;7.47;;;6.77;;
15843;SDS011;50807;52.436;13.346;2023-01-26T01:00:15;7.10;;;6.50;;
15843;SDS011;50807;52.436;13.346;2023-01-26T01:00:48;8.27;;;7.47;;
15843;SDS011;50807;52.436;13.346;2023-01-26T01:01:19;7.30;;;6.63;;
15843;SDS011;50807;52.436;13.346;2023-01-26T01:01:50;7.33;;;6.67;;
15843;SDS011;50807;52.436;13.346;2023-01-26T01:02:23;7.47;;;6.85;;
15843;SDS011;50807;52.436;13.346;2023-01-26T01:02:54;8.15;;;7.35;;
15843;SDS011;50807;52.436;13.346;2023-01-26T01:03:26;8.32;;;7.53;;
15843;SDS011;50807;52.436;13.346;2023-01-26T01:03:58;8.07;;;7.28;;
15843;SDS011;50807;52.436;13.346;2023-01-26T01:04:29;7.27;;;6.57;;
15843;SDS011;50807;52.436;13.346;2023-01-26T01:05:01;8.98;;;8.18;;
15843;SDS011;50807;52.436;13.346;2023-01-26T01:05:32;8.43;;;7.55;;
15843;SDS011;50807;52.436;13.346;2023-01-26T01:06:03;8.52;;;7.72;;
15843;SDS011;50807;52.436;13.346;2023-01-26T01:06:35;8.50;;;7.70;;
15843;SDS011;50807;52.436;13.346;2023-01-26T01:07:06;8.53;;;7.73;;
15843;SDS011;50807;52.436;13.346;2023-01-26T01:07:37;8.00;;;7.20;;
15843;SDS011;50807;52.436;13.346;2023-01-26T01:08:08;8.85;;;8.05;;
15843;SDS011;50807;52.436;13.346;2023-01-26T01:08:39;8.47;;;7.67;;
15843;SDS011;50807;52.436;13.346;2023-01-26T01:09:11;9.20;;;8.37;;
15843;SDS011;50807;52.436;13.346;2023-01-26T01:09:43;8.73;;;7.93;;
15843;SDS011;50807;52.436;13.346;2023-01-26T01:10:15;8.23;;;7.45;;
15843;SDS011;50807;52.436;13.346;2023-01-26T01:10:46;9.23;;;8.33;;
15843;SDS011;50807;52.436;13.346;2023-01-26T01:11:18;8.98;;;8.07;;
15843;SDS011;50807;52.436;13.346;2023-01-26T01:11:49;8.50;;;7.57;;
15843;SDS011;50807;52.436;13.346;2023-01-26T01:12:20;8.63;;;7.78;;
15843;SDS011;50807;52.436;13.346;2023-01-26T01:12:51;10.15;;;9.15;;
15843;SDS011;50807;52.436;13.346;2023-01-26T01:13:23;8.35;;;7.55;;
15843;SDS011;50807;52.436;13.346;2023-01-26T01:13:53;8.07;;;7.37;;
15843;SDS011;50807;52.436;13.346;2023-01-26T01:14:25;8.93;;;8.13;;
15843;SDS011;50807;52.436;13.346;2023-01-26T01:14:56;8.37;;;7.57;;
15843;SDS011;50807;52.436;13.346;2023-01-26T01:15:27;8.73;;;7.90;;
15843;SDS011;50807;52.436;13.346;2023-01-26T01:15:58;8.88;;;8.05;;
15843;SDS011;50807;52.436;13.346;2023-01-26T01:16:29;9.57;;;8.67;;
15843;SDS011;50807;52.436;13.346;2023-01-26T01:17:00;9.17;;;8.37;;
15843;SDS011;50807;52.436;13.346;2023-01-26T01:17:33;9.45;;;8.55;;
15843;SDS011;50807;52.436;13.346;2023-01-26T01:18:05;9.50;;;8.50;;
15843;SDS011;50807;52.436;13.346;2023-01-26T01:18:36;8.40;;;7.60;;
15843;SDS011;50807;52.436;13.346;2023-01-26T01:19:10;9.05;;;8.15;;
15843;SDS011;50807;52.436;13.346;2023-01-26T01:19:44;9.57;;;8.68;;
15843;SDS011;50807;52.436;13.346;2023-01-26T01:20:14;8.73;;;7.83;;
15843;SDS011;50807;52.436;13.346;2023-01-26T01:20:46;9.30;;;8.30;;
15843;SDS011;50807;52.436;13.346;2023-01-26T01:21:17;9.27;;;8.37;;
15843;SDS011;50807;52.436;13.346;2023-01-26T01:21:49;8.77;;;7.90;;
15843;SDS011;50807;52.436;13.346;2023-01-26T01:22:20;9.30;;;8.40;;
15843;SDS011;50807;52.436;13.346;2023-01-26T01:22:51;9.07;;;8.17;;
15843;SDS011;50807;52.436;13.346;2023-01-26T01:23:22;8.90;;;8.00;;
15843;SDS011;50807;52.436;13.346;2023-01-26T01:23:53;9.40;;;8.40;;
15843;SDS011;50807;52.436;13.346;2023-01-26T01:24:24;8.75;;;7.88;;
15843;SDS011;50807;52.436;13.346;2023-01-26T01:24:55;8.83;;;7.93;;
15843;SDS011;50807;52.436;13.346;2023-01-26T01:25:26;9.87;;;8.87;;
15843;SDS011;50807;52.436;13.346;2023-01-26T01:25:58;9.45;;;8.18;;
15843;SDS011;50807;52.436;13.346;2023-01-26T01:26:30;8.75;;;7.88;;
15843;SDS011;50807;52.436;13.346;2023-01-26T01:27:01;9.23;;;8.33;;
15843;SDS011;50807;52.436;13.346;2023-01-26T01:27:33;9.75;;;8.75;;
15843;SDS011;50807;52.436;13.346;2023-01-26T01:28:04;9.90;;;8.90;;
15843;SDS011;50807;52.436;13.346;2023-01-26T01:28:35;10.17;;;9.17;;
15843;SDS011;50807;52.436;13.346;2023-01-26T01:29:08;9.98;;;8.98;;
15843;SDS011;50807;52.436;13.346;2023-01-26T01:29:42;10.65;;;9.55;;
15843;SDS011;50807;52.436;13.346;2023-01-26T01:30:13;9.53;;;8.27;;
15843;SDS011;50807;52.436;13.346;2023-01-26T01:30:45;9.38;;;8.48;;
15843;SDS011;50807;52.436;13.346;2023-01-26T01:31:16;10.03;;;8.87;;
15843;SDS011;50807;52.436;13.346;2023-01-26T01:31:47;9.67;;;8.67;;
15843;SDS011;50807;52.436;13.346;2023-01-26T01:32:18;10.88;;;9.82;;
15843;SDS011;50807;52.436;13.346;2023-01-26T01:32:51;11.18;;;9.85;;
15843;SDS011;50807;52.436;13.346;2023-01-26T01:33:22;10.93;;;9.82;;
15843;SDS011;50807;52.436;13.346;2023-01-26T01:33:55;10.88;;;9.75;;
15843;SDS011;50807;52.436;13.346;2023-01-26T01:34:26;10.30;;;9.30;;
15843;SDS011;50807;52.436;13.346;2023-01-26T01:34:57;10.60;;;9.50;;
15843;SDS011;50807;52.436;13.346;2023-01-26T01:35:29;10.77;;;9.68;;
15843;SDS011;50807;52.436;13.346;2023-01-26T01:36:01;10.38;;;9.07;;
15843;SDS011;50807;52.436;13.346;2023-01-26T01:36:34;9.80;;;8.80;;
15843;SDS011;50807;52.436;13.346;2023-01-26T01:37:05;9.15;;;8.13;;
15843;SDS011;50807;52.436;13.346;2023-01-26T01:37:36;9.00;;;8.10;;
15843;SDS011;50807;52.436;13.346;2023-01-26T01:38:07;10.07;;;9.07;;
15843;SDS011;50807;52.436;13.346;2023-01-26T01:38:39;9.75;;;8.73;;
15843;SDS011;50807;52.436;13.346;2023-01-26T01:39:11;9.48;;;8.57;;
15843;SDS011;50807;52.436;13.346;2023-01-26T01:39:41;9.90;;;8.50;;
15843;SDS011;50807;52.436;13.346;2023-01-26T01:40:13;11.23;;;9.52;;
15843;SDS011;50807;52.436;13.346;2023-01-26T01:40:44;9.30;;;8.23;;
15843;SDS011;50807;52.436;13.346;2023-01-26T01:41:17;10.23;;;9.13;;
15843;SDS011;50807;52.436;13.346;2023-01-26T01:41:52;11.25;;;8.82;;
15843;SDS011;50807;52.436;13.346;2023-01-26T01:42:23;10.57;;;9.07;;
15843;SDS011;50807;52.436;13.346;2023-01-26T01:42:55;10.93;;;9.38;;
15843;SDS011;50807;52.436;13.346;2023-01-26T01:43:27;10.13;;;9.13;;
15843;SDS011;50807;52.436;13.346;2023-01-26T01:44:11;10.55;;;8.90;;
15843;SDS011;50807;52.436;13.346;2023-01-26T01:44:45;9.05;;;8.15;;
15843;SDS011;50807;52.436;13.346;2023-01-26T01:46:04;10.10;;;8.50;;
15843;SDS011;50807;52.436;13.346;2023-01-26T01:46:44;9.32;;;8.27;;
15843;SDS011;50807;52.436;13.346;2023-01-26T01:47:23;9.10;;;8.15;;
15843;SDS011;50807;52.436;13.346;2023-01-26T01:47:58;10.40;;;9.25;;
15843;SDS011;50807;52.436;13.346;2023-01-26T01:48:34;10.60;;;9.45;;
15843;SDS011;50807;52.436;13.346;2023-01-26T01:49:21;9.32;;;8.35;;
15843;SDS011;50807;52.436;13.346;2023-01-26T01:49:58;10.43;;;9.38;;
15843;SDS011;50807;52.436;13.346;2023-01-26T01:50:29;9.57;;;8.57;;
15843;SDS011;50807;52.436;13.346;2023-01-26T01:51:07;9.45;;;8.43;;
15843;SDS011;50807;52.436;13.346;2023-01-26T01:51:47;10.90;;;9.25;;
15843;SDS011;50807;52.436;13.346;2023-01-26T01:52:25;10.40;;;9.18;;
15843;SDS011;50807;52.436;13.346;2023-01-26T01:53:00;11.13;;;9.98;;
15843;SDS011;50807;52.436;13.346;2023-01-26T01:53:32;11.18;;;10.07;;
15843;SDS011;50807;52.436;13.346;2023-01-26T01:54:09;11.60;;;10.40;;
15843;SDS011;50807;52.436;13.346;2023-01-26T01:54:45;10.73;;;9.63;;
15843;SDS011;50807;52.436;13.346;2023-01-26T01:55:22;11.23;;;10.02;;
15843;SDS011;50807;52.436;13.346;2023-01-26T01:55:55;11.52;;;9.95;;
15843;SDS011;50807;52.436;13.346;2023-01-26T01:56:30;11.18;;;10.02;;
15843;SDS011;50807;52.436;13.346;2023-01-26T01:57:05;11.07;;;9.93;;
15843;SDS011;50807;52.436;13.346;2023-01-26T01:57:49;10.45;;;9.40;;
15843;SDS011;50807;52.436;13.346;2023-01-26T01:58:25;11.13;;;9.93;;
15843;SDS011;50807;52.436;13.346;2023-01-26T01:58:59;11.07;;;9.95;;
15843;SDS011;50807;52.436;13.346;2023-01-26T01:59:35;11.52;;;10.32;;
15843;SDS011;50807;52.436;13.346;2023-01-26T02:00:07;11.07;;;9.97;;
15843;SDS011;50807;52.436;13.346;2023-01-26T02:00:41;11.45;;;10.25;;
15843;SDS011;50807;52.436;13.346;2023-01-26T02:01:12;11.35;;;10.23;;
15843;SDS011;50807;52.436;13.346;2023-01-26T02:01:43;11.13;;;9.97;;
15843;SDS011;50807;52.436;13.346;2023-01-26T02:02:15;12.73;;;10.57;;
15843;SDS011;50807;52.436;13.346;2023-01-26T02:02:48;10.68;;;9.57;;
15843;SDS011;50807;52.436;13.346;2023-01-26T02:03:41;10.57;;;9.30;;
15843;SDS011;50807;52.436;13.346;2023-01-26T02:04:19;11.05;;;9.85;;
15843;SDS011;50807;52.436;13.346;2023-01-26T02:04:53;11.57;;;10.45;;
15843;SDS011;50807;52.436;13.346;2023-01-26T02:05:34;10.48;;;9.45;;
15843;SDS011;50807;52.436;13.346;2023-01-26T02:06:15;11.00;;;9.90;;
15843;SDS011;50807;52.436;13.346;2023-01-26T02:06:52;10.32;;;9.18;;
15843;SDS011;50807;52.436;13.346;2023-01-26T02:07:27;11.38;;;9.57;;
15843;SDS011;50807;52.436;13.346;2023-01-26T02:08:02;11.38;;;9.85;;
15843;SDS011;50807;52.436;13.346;2023-01-26T02:08:35;10.25;;;9.25;;
15843;SDS011;50807;52.436;13.346;2023-01-26T02:09:10;11.07;;;9.98;;
15843;SDS011;50807;52.436;13.346;2023-01-26T02:10:02;10.60;;;9.10;;
15843;SDS011;50807;52.436;13.346;2023-01-26T02:10:50;9.82;;;8.90;;
15843;SDS011;50807;52.436;13.346;2023-01-26T02:11:27;10.07;;;9.00;;
15843;SDS011;50807;52.436;13.346;2023-01-26T02:12:03;9.80;;;8.82;;
15843;SDS011;50807;52.436;13.346;2023-01-26T02:12:39;10.70;;;9.27;;
15843;SDS011;50807;52.436;13.346;2023-01-26T02:13:12;9.48;;;8.52;;
15843;SDS011;50807;52.436;13.346;2023-01-26T02:13:45;10.00;;;9.00;;
15843;SDS011;50807;52.436;13.346;2023-01-26T02:14:18;9.07;;;8.18;;
15843;SDS011;50807;52.436;13.346;2023-01-26T02:14:51;9.65;;;8.65;;
15843;SDS011;50807;52.436;13.346;2023-01-26T02:15:23;10.68;;;8.95;;
15843;SDS011;50807;52.436;13.346;2023-01-26T02:15:53;11.23;;;8.93;;
15843;SDS011;50807;52.436;13.346;2023-01-26T02:16:26;10.10;;;9.10;;
15843;SDS011;50807;52.436;13.346;2023-01-26T02:16:57;10.90;;;9.10;;
15843;SDS011;50807;52.436;13.346;2023-01-26T02:17:27;9.53;;;8.50;;
15843;SDS011;50807;52.436;13.346;2023-01-26T02:17:59;10.77;;;9.18;;
15843;SDS011;50807;52.436;13.346;2023-01-26T02:18:33;10.07;;;9.18;;
15843;SDS011;50807;52.436;13.346;2023-01-26T02:19:08;9.77;;;8.77;;
15843;SDS011;50807;52.436;13.346;2023-01-26T02:19:50;9.88;;;8.88;;
15843;SDS011;50807;52.436;13.346;2023-01-26T02:20:34;9.63;;;8.63;;
15843;SDS011;50807;52.436;13.346;2023-01-26T02:21:15;9.70;;;8.70;;
15843;SDS011;50807;52.436;13.346;2023-01-26T02:21:49;9.80;;;8.80;;
15843;SDS011;50807;52.436;13.346;2023-01-26T02:22:27;10.15;;;9.15;;
15843;SDS011;50807;52.436;13.346;2023-01-26T02:23:14;10.98;;;9.88;;
15843;SDS011;50807;52.436;13.346;2023-01-26T02:24:14;11.02;;;9.93;;
15843;SDS011;50807;52.436;13.346;2023-01-26T02:24:54;9.70;;;8.32;;
15843;SDS011;50807;52.436;13.346;2023-01-26T02:25:37;9.85;;;8.85;;
15843;SDS011;50807;52.436;13.346;2023-01-26T02:26:19;9.50;;;8.45;;
15843;SDS011;50807;52.436;13.346;2023-01-26T02:26:52;9.70;;;8.70;;
15843;SDS011;50807;52.436;13.346;2023-01-26T02:27:24;10.13;;;9.13;;
15843;SDS011;50807;52.436;13.346;2023-01-26T02:27:56;10.05;;;9.05;;
15843;SDS011;50807;52.436;13.346;2023-01-26T02:28:27;9.33;;;8.40;;
15843;SDS011;50807;52.436;13.346;2023-01-26T02:28:58;10.65;;;9.55;;
15843;SDS011;50807;52.436;13.346;2023-01-26T02:29:32;10.10;;;9.02;;
15843;SDS011;50807;52.436;13.346;2023-01-26T02:30:04;9.87;;;8.97;;
15843;SDS011;50807;52.436;13.346;2023-01-26T02:30:37;11.13;;;9.93;;
15843;SDS011;50807;52.436;13.346;2023-01-26T02:31:09;9.02;;;8.13;;
15843;SDS011;50807;52.436;13.346;2023-01-26T02:31:42;9.32;;;8.32;;
15843;SDS011;50807;52.436;13.346;2023-01-26T02:32:13;10.27;;;9.15;;
15843;SDS011;50807;52.436;13.346;2023-01-26T02:32:45;9.25;;;8.35;;
15843;SDS011;50807;52.436;13.346;2023-01-26T02:33:16;9.60;;;8.60;;
15843;SDS011;50807;52.436;13.346;2023-01-26T02:33:48;10.30;;;9.13;;
15843;SDS011;50807;52.436;13.346;2023-01-26T02:34:20;10.85;;;9.75;;
15843;SDS011;50807;52.436;13.346;2023-01-26T02:34:54;10.40;;;9.27;;
15843;SDS011;50807;52.436;13.346;2023-01-26T02:35:25;10.88;;;9.77;;
15843;SDS011;50807;52.436;13.346;2023-01-26T02:35:57;9.65;;;8.65;;
15843;SDS011;50807;52.436;13.346;2023-01-26T02:36:31;7.97;;;7.18;;
15843;SDS011;50807;52.436;13.346;2023-01-26T02:37:04;11.02;;;9.73;;
15843;SDS011;50807;52.436;13.346;2023-01-26T02:37:42;9.50;;;8.50;;
15843;SDS011;50807;52.436;13.346;2023-01-26T02:38:13;10.70;;;9.60;;
15843;SDS011;50807;52.436;13.346;2023-01-26T02:38:47;9.50;;;8.60;;
15843;SDS011;50807;52.436;13.346;2023-01-26T02:39:35;9.55;;;8.55;;
15843;SDS011;50807;52.436;13.346;2023-01-26T02:40:20;10.27;;;7.95;;
15843;SDS011;50807;52.436;13.346;2023-01-26T02:41:06;9.68;;;8.70;;
15843;SDS011;50807;52.436;13.346;2023-01-26T02:41:43;9.70;;;8.70;;
15843;SDS011;50807;52.436;13.346;2023-01-26T02:42:35;9.90;;;8.98;;
15843;SDS011;50807;52.436;13.346;2023-01-26T02:43:10;9.30;;;8.38;;
15843;SDS011;50807;52.436;13.346;2023-01-26T02:43:41;9.43;;;8.60;;
15843;SDS011;50807;52.436;13.346;2023-01-26T02:44:11;10.10;;;9.10;;
15843;SDS011;50807;52.436;13.346;2023-01-26T02:44:43;8.55;;;7.75;;
15843;SDS011;50807;52.436;13.346;2023-01-26T02:45:15;9.85;;;8.85;;
15843;SDS011;50807;52.436;13.346;2023-01-26T02:45:46;9.70;;;8.80;;
15843;SDS011;50807;52.436;13.346;2023-01-26T02:46:17;9.67;;;8.73;;
15843;SDS011;50807;52.436;13.346;2023-01-26T02:46:49;10.45;;;9.30;;
15843;SDS011;50807;52.436;13.346;2023-01-26T02:47:20;11.50;;;9.87;;
15843;SDS011;50807;52.436;13.346;2023-01-26T02:47:50;10.67;;;9.57;;
15843;SDS011;50807;52.436;13.346;2023-01-26T02:48:21;10.63;;;9.53;;
15843;SDS011;50807;52.436;13.346;2023-01-26T02:49:07;10.50;;;9.38;;
15843;SDS011;50807;52.436;13.346;2023-01-26T02:49:56;9.35;;;8.38;;
15843;SDS011;50807;52.436;13.346;2023-01-26T02:50:29;10.45;;;9.45;;
15843;SDS011;50807;52.436;13.346;2023-01-26T02:51:00;10.23;;;9.02;;
15843;SDS011;50807;52.436;13.346;2023-01-26T02:51:32;9.73;;;8.73;;
15843;SDS011;50807;52.436;13.346;2023-01-26T02:52:03;11.23;;;9.20;;
15843;SDS011;50807;52.436;13.346;2023-01-26T02:52:34;11.00;;;9.80;;
15843;SDS011;50807;52.436;13.346;2023-01-26T02:53:06;11.23;;;9.20;;
15843;SDS011;50807;52.436;13.346;2023-01-26T02:53:36;10.97;;;9.87;;
15843;SDS011;50807;52.436;13.346;2023-01-26T02:54:07;11.07;;;9.97;;
15843;SDS011;50807;52.436;13.346;2023-01-26T02:54:59;10.90;;;9.80;;
15843;SDS011;50807;52.436;13.346;2023-01-26T02:55:48;9.68;;;8.68;;
15843;SDS011;50807;52.436;13.346;2023-01-26T02:56:21;9.93;;;8.73;;
15843;SDS011;50807;52.436;13.346;2023-01-26T02:56:53;10.00;;;9.03;;
15843;SDS011;50807;52.436;13.346;2023-01-26T02:57:23;9.80;;;8.80;;
15843;SDS011;50807;52.436;13.346;2023-01-26T02:57:56;9.07;;;8.18;;
15843;SDS011;50807;52.436;13.346;2023-01-26T02:58:30;10.63;;;8.90;;
15843;SDS011;50807;52.436;13.346;2023-01-26T02:59:01;10.27;;;9.13;;
15843;SDS011;50807;52.436;13.346;2023-01-26T02:59:32;11.00;;;9.03;;
15843;SDS011;50807;52.436;13.346;2023-01-26T03:00:04;9.67;;;8.67;;
15843;SDS011;50807;52.436;13.346;2023-01-26T03:00:40;9.43;;;8.48;;
15843;SDS011;50807;52.436;13.346;2023-01-26T03:01:11;9.40;;;8.27;;
15843;SDS011;50807;52.436;13.346;2023-01-26T03:01:43;11.00;;;8.90;;
15843;SDS011;50807;52.436;13.346;2023-01-26T03:02:14;9.60;;;8.60;;
15843;SDS011;50807;52.436;13.346;2023-01-26T03:02:45;9.70;;;8.37;;
15843;SDS011;50807;52.436;13.346;2023-01-26T03:03:17;9.48;;;8.25;;
15843;SDS011;50807;52.436;13.346;2023-01-26T03:03:53;9.00;;;8.07;;
15843;SDS011;50807;52.436;13.346;2023-01-26T03:04:24;9.30;;;8.30;;
15843;SDS011;50807;52.436;13.346;2023-01-26T03:04:56;9.48;;;8.57;;
15843;SDS011;50807;52.436;13.346;2023-01-26T03:05:27;10.17;;;9.07;;
15843;SDS011;50807;52.436;13.346;2023-01-26T03:05:57;10.35;;;8.70;;
15843;SDS011;50807;52.436;13.346;2023-01-26T03:06:29;9.35;;;8.43;;
15843;SDS011;50807;52.436;13.346;2023-01-26T03:07:00;10.47;;;9.47;;
15843;SDS011;50807;52.436;13.346;2023-01-26T03:07:31;10.13;;;9.07;;
15843;SDS011;50807;52.436;13.346;2023-01-26T03:08:01;9.53;;;8.53;;
15843;SDS011;50807;52.436;13.346;2023-01-26T03:08:35;10.52;;;9.13;;
15843;SDS011;50807;52.436;13.346;2023-01-26T03:09:06;10.63;;;9.52;;
15843;SDS011;50807;52.436;13.346;2023-01-26T03:09:36;10.33;;;8.83;;
15843;SDS011;50807;52.436;13.346;2023-01-26T03:10:09;10.63;;;9.52;;
15843;SDS011;50807;52.436;13.346;2023-01-26T03:10:41;10.10;;;9.05;;
15843;SDS011;50807;52.436;13.346;2023-01-26T03:11:12;10.18;;;9.18;;
15843;SDS011;50807;52.436;13.346;2023-01-26T03:11:44;10.48;;;9.23;;
15843;SDS011;50807;52.436;13.346;2023-01-26T03:12:16;10.30;;;9.17;;
15843;SDS011;50807;52.436;13.346;2023-01-26T03:12:46;11.20;;;9.68;;
15843;SDS011;50807;52.436;13.346;2023-01-26T03:13:18;10.93;;;9.60;;
15843;SDS011;50807;52.436;13.346;2023-01-26T03:13:49;11.83;;;9.50;;
15843;SDS011;50807;52.436;13.346;2023-01-26T03:14:19;9.90;;;8.90;;
15843;SDS011;50807;52.436;13.346;2023-01-26T03:14:51;10.10;;;9.10;;
15843;SDS011;50807;52.436;13.346;2023-01-26T03:15:46;9.98;;;8.98;;
15843;SDS011;50807;52.436;13.346;2023-01-26T03:16:21;11.65;;;10.35;;
15843;SDS011;50807;52.436;13.346;2023-01-26T03:16:53;12.40;;;10.38;;